Time;durP1;ratioP1;P1;durP2;ratioP2;P2;SDS_P1;SDS_P2;PMS_P1;PMS_P2;Temp;Humidity;BMP_temperature;BMP_pressure;BME280_temperature;BME280_humidity;BME280_pressure;Samples;Min_cycle;Max_cycle;Signal;HPM_P1;HPM_P2
2021/12/19 00:01:28;;;;;;;7.95;3.10;;;8.60;99.20;;;;;;5078038;28;20028;-77
2021/12/19 00:09:05;;;;;;;7.63;3.50;;;8.50;99.40;;;;;;5096733;28;20156;-85
2021/12/19 00:11:32;;;;;;;7.47;3.10;;;8.50;99.30;;;;;;5078556;28;20460;-76
2021/12/19 00:13:59;;;;;;;5.88;2.83;;;8.50;99.30;;;;;;5096306;28;20028;-77
2021/12/19 00:16:24;;;;;;;6.43;3.20;;;8.40;99.30;;;;;;5096282;28;20065;-77
2021/12/19 00:18:52;;;;;;;6.78;2.65;;;8.30;99.40;;;;;;5096385;28;20030;-77
2021/12/19 00:21:19;;;;;;;7.25;3.30;;;8.30;99.50;;;;;;5078153;28;20028;-77
2021/12/19 00:23:47;;;;;;;6.18;2.90;;;8.30;99.50;;;;;;5096219;28;20024;-77
2021/12/19 00:26:15;;;;;;;6.05;3.17;;;8.30;99.50;;;;;;5095979;28;20043;-77
2021/12/19 00:28:42;;;;;;;5.80;3.00;;;8.30;99.40;;;;;;5077989;28;20031;-76
2021/12/19 00:31:08;;;;;;;7.95;3.65;;;8.30;99.40;;;;;;5096021;28;20036;-77
2021/12/19 00:33:35;;;;;;;7.32;2.83;;;8.30;99.40;;;;;;5096139;28;20099;-77
2021/12/19 00:36:01;;;;;;;5.63;2.72;;;8.20;99.30;;;;;;5096258;28;20516;-77
2021/12/19 00:38:27;;;;;;;6.05;3.05;;;8.20;99.40;;;;;;5077402;28;20063;-76
2021/12/19 00:40:53;;;;;;;5.90;2.80;;;8.20;99.40;;;;;;5094960;28;20083;-76
2021/12/19 00:43:37;;;;;;;5.75;2.90;;;8.20;99.40;;;;;;5095805;28;20020;-77
2021/12/19 00:46:09;;;;;;;5.63;2.60;;;8.20;99.50;;;;;;5077640;28;20028;-77
2021/12/19 00:48:45;;;;;;;7.45;3.17;;;8.20;99.50;;;;;;5077620;28;20032;-77
2021/12/19 00:51:15;;;;;;;6.93;3.70;;;8.20;99.40;;;;;;5095654;28;20460;-77
2021/12/19 00:53:42;;;;;;;6.97;3.22;;;8.20;99.30;;;;;;5095723;28;20024;-77
2021/12/19 00:56:08;;;;;;;6.38;2.70;;;8.20;99.30;;;;;;5095530;28;20025;-78
2021/12/19 00:58:34;;;;;;;7.13;3.22;;;8.30;99.20;;;;;;5077615;28;20020;-77
2021/12/19 01:01:01;;;;;;;7.05;2.78;;;8.20;99.20;;;;;;5077464;28;20020;-76
2021/12/19 01:03:27;;;;;;;7.53;3.08;;;8.20;99.20;;;;;;5077657;28;20442;-77
2021/12/19 01:05:53;;;;;;;8.63;3.35;;;8.20;99.30;;;;;;5077384;28;20056;-76
2021/12/19 01:08:19;;;;;;;6.30;3.30;;;8.20;99.40;;;;;;5077936;28;20475;-77
2021/12/19 01:10:47;;;;;;;6.18;2.60;;;8.20;99.30;;;;;;5077163;28;20043;-77
2021/12/19 01:13:15;;;;;;;8.93;3.15;;;8.20;99.50;;;;;;5095017;28;20383;-77
2021/12/19 01:15:41;;;;;;;8.05;3.33;;;8.10;99.30;;;;;;5076972;28;20067;-77
2021/12/19 01:18:07;;;;;;;7.28;3.33;;;8.20;99.30;;;;;;5077206;28;20529;-76
2021/12/19 01:20:37;;;;;;;5.75;2.47;;;8.20;99.30;;;;;;5095333;28;20027;-77
2021/12/19 01:23:04;;;;;;;5.28;2.50;;;8.20;99.30;;;;;;5095338;28;20028;-76
2021/12/19 01:25:30;;;;;;;5.68;2.75;;;8.10;99.30;;;;;;5076824;28;20097;-77
2021/12/19 01:27:57;;;;;;;5.95;2.80;;;8.10;99.30;;;;;;5077156;28;20460;-75
2021/12/19 01:30:23;;;;;;;6.05;2.67;;;8.00;99.40;;;;;;5076725;28;20043;-76
2021/12/19 01:32:49;;;;;;;5.65;2.35;;;8.00;99.40;;;;;;5076645;28;20016;-77
2021/12/19 01:35:17;;;;;;;5.75;2.58;;;8.10;99.40;;;;;;5076746;28;20499;-77
2021/12/19 01:37:43;;;;;;;4.93;1.95;;;8.10;99.40;;;;;;5076737;28;20077;-76
2021/12/19 01:40:11;;;;;;;8.13;2.72;;;8.10;99.40;;;;;;5076665;28;20468;-77
2021/12/19 01:42:39;;;;;;;6.38;2.75;;;8.10;99.40;;;;;;5077350;28;20364;-77
2021/12/19 01:45:08;;;;;;;6.03;3.15;;;8.20;99.30;;;;;;5095055;28;20047;-77
2021/12/19 01:47:35;;;;;;;6.55;2.40;;;8.20;99.30;;;;;;5077081;28;20026;-76
2021/12/19 01:50:02;;;;;;;6.15;2.50;;;8.20;99.30;;;;;;5094300;28;20036;-77
2021/12/19 01:52:29;;;;;;;5.63;2.63;;;8.30;99.30;;;;;;5094211;28;20028;-77
2021/12/19 01:54:57;;;;;;;6.30;2.40;;;8.30;99.20;;;;;;5094257;28;20027;-76
2021/12/19 01:57:25;;;;;;;6.95;3.00;;;8.30;99.30;;;;;;5094359;28;20062;-77
2021/12/19 01:59:53;;;;;;;7.32;2.95;;;8.30;99.30;;;;;;5076168;28;20032;-76
2021/12/19 02:02:19;;;;;;;7.55;2.88;;;8.30;99.30;;;;;;5076072;28;20020;-77
2021/12/19 02:04:44;;;;;;;9.05;3.63;;;8.30;99.20;;;;;;5076016;28;20077;-76
2021/12/19 02:07:11;;;;;;;8.50;3.55;;;8.30;99.20;;;;;;5094479;28;20032;-76
2021/12/19 02:09:38;;;;;;;8.38;3.60;;;8.30;99.20;;;;;;5075858;28;20037;-76
2021/12/19 02:12:05;;;;;;;8.18;4.07;;;8.30;99.20;;;;;;5076237;28;20032;-77
2021/12/19 02:14:31;;;;;;;8.48;3.28;;;8.20;99.20;;;;;;5075515;28;20067;-77
2021/12/19 02:16:57;;;;;;;7.97;4.03;;;8.30;99.30;;;;;;5075921;28;20096;-80
2021/12/19 02:19:24;;;;;;;9.05;3.60;;;8.20;99.40;;;;;;5094124;28;20027;-77
2021/12/19 02:21:50;;;;;;;7.60;3.33;;;8.20;99.40;;;;;;5094234;28;20503;-76
2021/12/19 02:24:16;;;;;;;7.90;3.40;;;8.20;99.60;;;;;;5093544;28;20024;-77
2021/12/19 02:26:43;;;;;;;7.55;3.17;;;8.20;99.60;;;;;;5094038;28;20027;-77
2021/12/19 02:29:09;;;;;;;7.25;3.13;;;8.20;99.50;;;;;;5093778;28;20024;-77
2021/12/19 02:31:35;;;;;;;6.45;2.45;;;8.30;99.50;;;;;;5076255;28;20363;-77
2021/12/19 02:34:17;;;;;;;5.70;2.28;;;8.30;99.40;;;;;;5093793;28;20495;-77
2021/12/19 02:40:06;;;;;;;4.70;2.08;;;8.20;99.50;;;;;;5093728;28;19910;-77
2021/12/19 02:50:24;;;;;;;2.60;1.13;;;8.10;99.50;;;;;;5093130;28;20051;-77
2021/12/19 02:52:51;;;;;;;3.13;1.60;;;8.10;99.50;;;;;;5093949;28;20024;-76
2021/12/19 02:55:18;;;;;;;4.13;1.50;;;8.10;99.50;;;;;;5093581;28;20368;-77
2021/12/19 02:57:49;;;;;;;3.05;1.20;;;8.00;99.50;;;;;;5075173;28;20012;-77
2021/12/19 03:00:22;;;;;;;2.53;1.20;;;8.00;99.60;;;;;;5093436;28;20081;-76
2021/12/19 03:02:48;;;;;;;2.70;1.38;;;8.10;99.70;;;;;;5075496;28;20393;-77
2021/12/19 03:05:14;;;;;;;3.60;1.38;;;8.10;99.60;;;;;;5075136;28;20031;-76
2021/12/19 03:07:42;;;;;;;3.58;1.50;;;8.10;99.60;;;;;;5074867;28;20024;-77
2021/12/19 03:18:26;;;;;;;4.32;1.48;;;8.30;99.50;;;;;;5077694;28;20436;-77
2021/12/19 03:20:52;;;;;;;3.17;1.42;;;8.30;99.40;;;;;;5074619;28;20024;-76
2021/12/19 03:23:17;;;;;;;4.43;1.40;;;8.30;99.40;;;;;;5074898;28;20023;-86
2021/12/19 03:25:44;;;;;;;3.03;1.55;;;8.40;99.40;;;;;;5093101;28;20059;-79
2021/12/19 03:28:12;;;;;;;4.85;2.10;;;8.40;99.60;;;;;;5092834;28;20025;-77
2021/12/19 03:30:38;;;;;;;3.13;1.48;;;8.40;99.30;;;;;;5092944;28;20028;-77
2021/12/19 03:33:05;;;;;;;5.25;1.92;;;8.40;99.40;;;;;;5075482;28;20016;-77
2021/12/19 03:35:31;;;;;;;4.97;1.70;;;8.40;99.40;;;;;;5093049;28;20020;-75
2021/12/19 03:37:59;;;;;;;4.70;2.00;;;8.40;99.40;;;;;;5092969;28;20012;-77
2021/12/19 03:40:35;;;;;;;4.22;1.90;;;8.50;99.40;;;;;;5093497;28;20024;-77
2021/12/19 03:43:21;;;;;;;3.45;1.60;;;8.50;99.40;;;;;;5092969;28;20020;-76
2021/12/19 03:45:47;;;;;;;3.35;1.63;;;8.50;99.40;;;;;;5074964;28;20466;-77
2021/12/19 03:48:16;;;;;;;6.55;2.10;;;8.40;99.40;;;;;;5092846;28;20106;-76
2021/12/19 03:50:45;;;;;;;4.20;1.70;;;8.40;99.40;;;;;;5074622;28;20137;-77
2021/12/19 03:53:12;;;;;;;4.45;1.40;;;8.40;99.40;;;;;;5074927;28;20530;-76
2021/12/19 03:55:39;;;;;;;5.50;1.85;;;8.40;99.40;;;;;;5093473;28;20032;-76
2021/12/19 03:58:05;;;;;;;6.90;2.25;;;8.40;99.40;;;;;;5092355;28;20498;-76
2021/12/19 04:00:32;;;;;;;5.90;2.25;;;8.40;99.40;;;;;;5074763;28;20052;-77
2021/12/19 04:03:04;;;;;;;3.88;2.00;;;8.40;99.50;;;;;;5092674;28;20028;-76
2021/12/19 04:05:30;;;;;;;4.82;1.42;;;8.40;99.50;;;;;;5093366;28;20016;-77
2021/12/19 04:07:56;;;;;;;3.83;1.73;;;8.40;99.50;;;;;;5074885;28;20027;-77
2021/12/19 04:10:24;;;;;;;6.60;2.08;;;8.40;99.50;;;;;;5092696;28;20032;-77
2021/12/19 04:12:51;;;;;;;5.03;1.92;;;8.40;99.40;;;;;;5092689;28;20456;-76
2021/12/19 04:15:17;;;;;;;4.72;1.98;;;8.50;99.50;;;;;;5075305;28;20063;-75
2021/12/19 04:17:42;;;;;;;6.63;2.15;;;8.40;99.50;;;;;;5096575;28;20107;-76
2021/12/19 04:20:11;;;;;;;7.88;2.85;;;8.50;99.50;;;;;;5078040;28;20391;-76
2021/12/19 04:22:37;;;;;;;5.43;2.33;;;8.40;99.50;;;;;;5096276;28;20016;-76
2021/12/19 04:25:03;;;;;;;6.82;2.65;;;8.40;99.50;;;;;;5078006;28;20035;-77
2021/12/19 04:27:29;;;;;;;7.65;2.50;;;8.40;99.60;;;;;;5096069;28;20158;-77
2021/12/19 04:29:55;;;;;;;7.78;2.15;;;8.40;99.60;;;;;;5096059;28;20115;-76
2021/12/19 04:32:27;;;;;;;6.22;2.63;;;8.40;99.60;;;;;;5077898;28;20116;-76
2021/12/19 04:34:53;;;;;;;7.03;2.78;;;8.50;99.60;;;;;;5096571;28;20397;-76
2021/12/19 04:40:11;;;;;;;4.67;1.70;;;8.50;99.60;;;;;;5096619;28;20038;-76
2021/12/19 04:53:17;;;;;;;6.65;2.40;;;8.40;99.70;;;;;;5095781;28;20039;-76
2021/12/19 04:58:50;;;;;;;4.57;2.13;;;8.50;99.70;;;;;;5096194;28;20088;-75
2021/12/19 05:01:34;;;;;;;4.32;2.17;;;8.50;99.70;;;;;;5095399;28;20036;-75
2021/12/19 05:14:40;;;;;;;7.10;2.83;;;8.50;99.80;;;;;;5095585;28;20038;-76
2021/12/19 05:17:09;;;;;;;9.43;3.10;;;8.60;99.80;;;;;;5095914;28;20020;-75
2021/12/19 05:19:49;;;;;;;7.65;3.10;;;8.60;99.80;;;;;;5095254;28;20031;-77
2021/12/19 05:22:17;;;;;;;6.10;2.72;;;8.60;99.70;;;;;;5077777;28;20020;-76
2021/12/19 05:24:59;;;;;;;8.48;3.65;;;8.60;99.60;;;;;;5076792;28;20027;-76
2021/12/19 05:27:25;;;;;;;7.47;2.65;;;8.60;99.60;;;;;;5076853;28;20111;-76
2021/12/19 05:29:51;;;;;;;6.88;3.28;;;8.60;99.70;;;;;;5076665;28;20115;-77
2021/12/19 05:32:17;;;;;;;8.20;3.28;;;8.60;99.70;;;;;;5077009;28;20028;-77
2021/12/19 05:34:42;;;;;;;7.82;3.67;;;8.70;99.80;;;;;;5094992;28;20107;-77
2021/12/19 05:45:20;;;;;;;8.40;3.05;;;8.70;99.80;;;;;;5095229;28;20430;-76
2021/12/19 05:47:50;;;;;;;7.18;3.00;;;8.80;99.80;;;;;;5094885;28;20020;-76
2021/12/19 05:50:22;;;;;;;7.30;3.50;;;8.80;99.80;;;;;;5094614;28;20036;-76
2021/12/19 05:52:48;;;;;;;;;;;8.80;99.80;;;;;;5094921;28;20016;-76
2021/12/19 05:55:15;;;;;;;7.45;3.45;;;8.70;99.70;;;;;;5076239;28;19908;-76
2021/12/19 05:57:41;;;;;;;6.32;2.60;;;8.70;99.70;;;;;;5094076;28;20077;-76
2021/12/19 06:00:09;;;;;;;6.47;2.78;;;8.80;99.80;;;;;;5094496;28;20468;-76
2021/12/19 06:02:35;;;;;;;6.25;2.20;;;8.80;99.80;;;;;;5094264;28;20027;-76
2021/12/19 06:05:02;;;;;;;5.75;2.47;;;8.80;99.80;;;;;;5094359;28;20479;-76
2021/12/19 06:07:28;;;;;;;4.80;1.70;;;8.80;99.80;;;;;;5076122;28;20016;-75
2021/12/19 06:09:53;;;;;;;2.72;1.40;;;8.80;99.80;;;;;;5076600;28;20024;-75
2021/12/19 06:12:19;;;;;;;4.82;1.67;;;8.80;99.80;;;;;;5075665;28;20033;-76
2021/12/19 06:14:45;;;;;;;2.63;1.10;;;8.70;99.80;;;;;;5075515;28;20032;-76
2021/12/19 06:17:10;;;;;;;1.95;1.00;;;8.70;99.80;;;;;;5076247;28;20073;-75
2021/12/19 06:19:36;;;;;;;2.58;0.88;;;8.60;99.80;;;;;;5076493;28;20050;-76
2021/12/19 06:22:05;;;;;;;1.67;1.00;;;8.60;99.80;;;;;;5075863;28;20373;-75
2021/12/19 06:24:32;;;;;;;1.48;0.77;;;8.50;99.90;;;;;;5093894;28;20016;-77
2021/12/19 06:26:59;;;;;;;1.48;1.00;;;8.50;99.90;;;;;;5075657;28;20032;-76
2021/12/19 06:29:26;;;;;;;1.60;0.85;;;8.40;99.90;;;;;;5075478;28;20028;-76
2021/12/19 06:31:52;;;;;;;2.05;0.98;;;8.40;99.90;;;;;;5093720;28;20028;-76
2021/12/19 06:34:18;;;;;;;1.83;0.80;;;8.40;99.90;;;;;;5075616;28;20353;-76
2021/12/19 06:36:44;;;;;;;1.90;0.60;;;8.40;99.90;;;;;;5093587;28;20433;-76
2021/12/19 06:39:09;;;;;;;1.52;0.75;;;8.40;99.90;;;;;;5074620;28;20047;-75
2021/12/19 06:41:36;;;;;;;0.85;0.60;;;8.40;99.90;;;;;;5075423;28;20028;-76
2021/12/19 06:44:03;;;;;;;1.85;0.70;;;8.40;99.90;;;;;;5075343;28;20035;-75
2021/12/19 06:46:29;;;;;;;0.65;0.50;;;8.40;99.90;;;;;;5075466;28;20023;-76
2021/12/19 06:48:55;;;;;;;0.65;0.60;;;8.40;99.90;;;;;;5075578;28;20111;-76
2021/12/19 06:51:21;;;;;;;1.38;0.60;;;8.30;99.90;;;;;;5093668;28;20115;-76
2021/12/19 06:53:47;;;;;;;1.58;1.40;;;8.30;99.90;;;;;;5075237;28;20024;-76
2021/12/19 06:56:13;;;;;;;1.70;0.63;;;8.20;99.90;;;;;;5093950;28;20039;-75
2021/12/19 06:58:39;;;;;;;0.30;0.30;;;8.20;99.90;;;;;;5093447;28;20051;-76
2021/12/19 07:01:05;;;;;;;1.20;0.50;;;8.20;99.90;;;;;;5075227;28;20111;-75
2021/12/19 07:03:30;;;;;;;0.75;0.47;;;8.10;99.90;;;;;;5075543;28;20363;-76
2021/12/19 07:05:56;;;;;;;0.55;0.50;;;8.20;99.90;;;;;;5093606;28;20067;-76
2021/12/19 07:08:23;;;;;;;0.95;0.43;;;8.10;99.90;;;;;;5093893;28;20016;-76
2021/12/19 07:10:49;;;;;;;0.80;0.55;;;8.20;99.90;;;;;;5093196;28;20533;-75
2021/12/19 07:13:20;;;;;;;1.65;0.40;;;8.30;99.90;;;;;;5075636;28;20055;-75
2021/12/19 07:15:47;;;;;;;2.08;0.90;;;8.30;99.90;;;;;;5074592;28;20460;-76
2021/12/19 07:18:13;;;;;;;1.02;0.60;;;8.40;99.90;;;;;;5092802;28;20369;-75
2021/12/19 07:20:42;;;;;;;0.90;0.50;;;8.40;99.90;;;;;;5093305;28;20028;-76
2021/12/19 07:23:11;;;;;;;0.65;0.50;;;8.30;99.90;;;;;;5074937;28;20016;-75
2021/12/19 07:25:37;;;;;;;0.70;0.50;;;8.30;99.90;;;;;;5092970;28;20445;-76
2021/12/19 07:28:03;;;;;;;1.35;0.73;;;8.30;99.90;;;;;;5093138;28;20069;-76
2021/12/19 07:30:30;;;;;;;0.52;0.52;;;8.30;99.90;;;;;;5074845;28;20028;-76
2021/12/19 07:32:57;;;;;;;1.30;0.75;;;8.20;99.90;;;;;;5092965;28;20020;-76
2021/12/19 07:35:23;;;;;;;1.02;0.52;;;8.20;99.90;;;;;;5074843;28;20020;-76
2021/12/19 07:37:51;;;;;;;0.60;0.60;;;8.20;99.90;;;;;;5074955;28;20059;-76
2021/12/19 07:40:22;;;;;;;1.00;0.73;;;8.30;99.90;;;;;;5074845;28;20114;-76
2021/12/19 07:42:48;;;;;;;0.52;0.52;;;8.30;99.90;;;;;;5074645;28;20125;-76
2021/12/19 07:45:16;;;;;;;1.75;0.70;;;8.30;99.90;;;;;;5093189;28;20107;-76
2021/12/19 07:47:43;;;;;;;0.60;0.60;;;8.30;99.90;;;;;;5075233;28;20072;-76
2021/12/19 07:50:11;;;;;;;0.80;0.65;;;8.30;99.90;;;;;;5077833;28;20032;-75
2021/12/19 07:52:38;;;;;;;1.67;0.70;;;8.30;99.80;;;;;;5078578;28;20157;-75
2021/12/19 07:55:04;;;;;;;1.85;0.77;;;8.30;99.80;;;;;;5097038;28;20039;-76
2021/12/19 07:57:30;;;;;;;1.33;0.68;;;8.30;99.90;;;;;;5096767;28;20024;-76
2021/12/19 07:59:56;;;;;;;1.23;0.60;;;8.30;99.90;;;;;;5078509;28;20114;-76
2021/12/19 08:02:22;;;;;;;1.65;0.85;;;8.40;99.90;;;;;;5096653;28;20024;-75
2021/12/19 08:04:48;;;;;;;0.55;0.52;;;8.40;99.80;;;;;;5097092;28;20028;-76
2021/12/19 08:07:16;;;;;;;2.40;0.73;;;8.40;99.90;;;;;;5096358;28;20028;-76
2021/12/19 08:09:59;;;;;;;1.45;0.80;;;8.30;99.90;;;;;;5096951;28;20035;-77
2021/12/19 08:12:25;;;;;;;3.05;0.90;;;8.30;99.90;;;;;;5097100;28;20048;-81
2021/12/19 08:14:51;;;;;;;0.98;0.63;;;8.30;99.90;;;;;;5096611;28;20034;-84
2021/12/19 08:17:17;;;;;;;1.02;0.80;;;8.30;99.90;;;;;;5078624;28;20103;-84
2021/12/19 08:19:44;;;;;;;1.60;0.70;;;8.40;99.90;;;;;;5079495;28;20024;-85
2021/12/19 08:22:09;;;;;;;0.50;0.50;;;8.30;99.90;;;;;;5078544;28;20035;-85
2021/12/19 08:24:35;;;;;;;2.05;0.57;;;8.40;99.90;;;;;;5079908;28;20016;-79
2021/12/19 08:27:02;;;;;;;1.27;0.65;;;8.40;99.90;;;;;;5078883;28;20070;-84
2021/12/19 08:29:27;;;;;;;0.75;0.60;;;8.40;99.90;;;;;;5097400;28;20032;-85
2021/12/19 08:31:53;;;;;;;1.02;0.70;;;8.50;99.90;;;;;;5079363;28;20019;-85
2021/12/19 08:34:20;;;;;;;1.75;0.88;;;8.50;99.90;;;;;;5078201;28;20020;-75
2021/12/19 08:36:45;;;;;;;1.38;0.80;;;8.50;99.90;;;;;;5096148;28;20027;-75
2021/12/19 08:39:12;;;;;;;0.90;0.70;;;8.50;99.90;;;;;;5096255;28;20035;-75
2021/12/19 08:41:39;;;;;;;1.60;0.60;;;8.50;99.90;;;;;;5077733;28;20024;-74
2021/12/19 08:44:05;;;;;;;1.42;0.70;;;8.50;99.90;;;;;;5078289;28;20056;-75
2021/12/19 08:46:35;;;;;;;0.60;0.60;;;8.50;99.80;;;;;;5095827;28;20345;-75
2021/12/19 08:49:04;;;;;;;1.35;0.60;;;8.50;99.90;;;;;;5095838;28;20020;-75
2021/12/19 08:51:32;;;;;;;0.98;0.68;;;8.50;99.80;;;;;;5095607;28;20032;-75
2021/12/19 08:54:00;;;;;;;0.90;0.50;;;8.40;99.80;;;;;;5095571;28;20024;-75
2021/12/19 08:56:26;;;;;;;0.55;0.50;;;8.40;99.80;;;;;;5096049;28;20020;-75
2021/12/19 08:58:52;;;;;;;1.05;0.68;;;8.40;99.80;;;;;;5095594;28;20028;-75
2021/12/19 09:01:18;;;;;;;2.40;0.68;;;8.40;99.90;;;;;;5094856;28;20099;-75
2021/12/19 09:03:44;;;;;;;0.45;0.45;;;8.40;99.90;;;;;;5095673;28;20112;-76
2021/12/19 09:06:10;;;;;;;0.68;0.50;;;8.50;99.80;;;;;;5076891;28;20031;-72
2021/12/19 09:08:36;;;;;;;1.00;0.65;;;8.50;99.80;;;;;;5077110;28;20081;-74
2021/12/19 09:11:02;;;;;;;0.73;0.52;;;8.50;99.70;;;;;;5076645;28;20028;-74
2021/12/19 09:13:28;;;;;;;1.83;0.98;;;8.50;99.80;;;;;;5095224;28;20096;-74
2021/12/19 09:15:54;;;;;;;0.90;0.75;;;8.40;99.70;;;;;;5094828;28;20104;-74
2021/12/19 09:18:20;;;;;;;1.75;0.93;;;8.40;99.80;;;;;;5076645;28;20031;-74
2021/12/19 09:20:46;;;;;;;2.47;0.88;;;8.40;99.80;;;;;;5076967;28;20020;-74
2021/12/19 09:23:12;;;;;;;2.90;0.77;;;8.40;99.80;;;;;;5095255;28;20103;-75
2021/12/19 09:25:38;;;;;;;0.63;0.63;;;8.40;99.80;;;;;;5076891;28;20020;-74
2021/12/19 09:28:04;;;;;;;0.90;0.60;;;8.40;99.80;;;;;;5076753;28;20081;-74
2021/12/19 09:30:30;;;;;;;1.00;0.80;;;8.40;99.80;;;;;;5076587;28;20468;-75
2021/12/19 09:32:56;;;;;;;0.80;0.80;;;8.50;99.80;;;;;;5095112;28;20020;-75
2021/12/19 09:35:22;;;;;;;1.50;0.88;;;8.50;99.70;;;;;;5077380;28;20512;-75
2021/12/19 09:37:48;;;;;;;1.98;0.95;;;8.50;99.70;;;;;;5094398;28;20031;-75
2021/12/19 09:40:19;;;;;;;3.53;1.25;;;8.50;99.70;;;;;;5076846;28;20023;-75
2021/12/19 09:42:49;;;;;;;1.63;0.95;;;8.50;99.70;;;;;;5076868;28;20344;-81
2021/12/19 09:45:15;;;;;;;3.92;1.20;;;8.50;99.70;;;;;;5076503;28;20028;-75
2021/12/19 09:47:42;;;;;;;2.80;1.30;;;8.60;99.70;;;;;;5076509;28;20114;-76
2021/12/19 09:50:08;;;;;;;3.80;1.50;;;8.60;99.60;;;;;;5094527;28;20476;-74
2021/12/19 09:52:35;;;;;;;2.53;1.25;;;8.60;99.60;;;;;;5094560;28;20020;-75
2021/12/19 09:55:01;;;;;;;2.63;1.38;;;8.60;99.50;;;;;;5094067;28;20360;-75
2021/12/19 09:57:27;;;;;;;2.03;1.48;;;8.70;99.50;;;;;;5076137;28;20060;-75
2021/12/19 09:59:53;;;;;;;3.78;1.30;;;8.60;99.50;;;;;;5076164;28;20024;-75
2021/12/19 10:02:19;;;;;;;1.50;0.90;;;8.60;99.50;;;;;;5076298;28;20035;-75
2021/12/19 10:04:45;;;;;;;3.85;1.50;;;8.60;99.50;;;;;;5093925;28;20525;-75
2021/12/19 10:07:18;;;;;;;3.17;1.38;;;8.70;99.60;;;;;;5076724;28;20028;-75
2021/12/19 10:10:02;;;;;;;4.55;1.73;;;8.70;99.50;;;;;;5094225;28;20046;-74
2021/12/19 10:15:05;;;;;;;3.47;1.60;;;8.60;99.60;;;;;;5093873;28;20385;-75
2021/12/19 10:17:31;;;;;;;3.53;1.45;;;8.70;99.50;;;;;;5094214;28;20024;-74
2021/12/19 10:19:59;;;;;;;4.00;2.05;;;8.80;99.50;;;;;;5075792;28;20034;-73
2021/12/19 10:22:24;;;;;;;6.90;1.67;;;8.80;99.50;;;;;;5094013;28;20024;-74
2021/12/19 10:24:51;;;;;;;3.05;1.63;;;8.80;99.40;;;;;;5093827;28;20023;-75
2021/12/19 10:27:36;;;;;;;5.18;2.20;;;8.80;99.50;;;;;;5093596;28;20032;-74
2021/12/19 10:30:13;;;;;;;4.80;1.70;;;8.80;99.40;;;;;;5093832;28;20036;-75
2021/12/19 10:33:02;;;;;;;7.45;1.98;;;8.70;99.30;;;;;;5093867;28;20017;-75
2021/12/19 10:35:30;;;;;;;4.30;1.85;;;8.70;99.40;;;;;;5075556;28;20020;-75
2021/12/19 10:37:56;;;;;;;5.35;2.17;;;8.80;99.40;;;;;;5076097;28;20023;-76
2021/12/19 10:40:22;;;;;;;3.10;1.70;;;8.70;99.40;;;;;;5094103;28;20028;-75
2021/12/19 10:42:57;;;;;;;6.20;1.95;;;8.70;99.40;;;;;;5094069;28;20448;-75
2021/12/19 10:45:32;;;;;;;4.65;1.50;;;8.70;99.40;;;;;;5093611;28;20074;-75
2021/12/19 10:48:27;;;;;;;3.05;1.52;;;8.70;99.40;;;;;;5093597;28;20464;-75
2021/12/19 10:51:07;;;;;;;4.22;1.63;;;8.70;99.40;;;;;;5074893;28;20028;-76
2021/12/19 10:53:52;;;;;;;3.67;1.80;;;8.80;99.40;;;;;;5093239;28;20027;-74
2021/12/19 10:56:29;;;;;;;3.80;1.50;;;8.80;99.40;;;;;;5075253;28;20020;-74
2021/12/19 10:59:01;;;;;;;4.05;1.50;;;8.80;99.40;;;;;;5075219;28;20363;-76
2021/12/19 11:01:30;;;;;;;3.20;1.80;;;8.80;99.40;;;;;;5093260;28;20468;-75
2021/12/19 11:04:01;;;;;;;4.72;1.50;;;8.90;99.30;;;;;;5074922;28;20101;-73
2021/12/19 11:06:43;;;;;;;3.53;1.40;;;8.90;99.20;;;;;;5075202;28;20020;-75
2021/12/19 11:09:15;;;;;;;4.30;1.88;;;8.90;99.30;;;;;;5075544;28;20367;-74
2021/12/19 11:11:48;;;;;;;8.30;1.88;;;8.90;99.30;;;;;;5093049;28;20034;-75
2021/12/19 11:14:25;;;;;;;2.78;1.40;;;8.90;99.30;;;;;;5074563;28;20067;-75
2021/12/19 11:16:58;;;;;;;3.55;1.70;;;8.90;99.30;;;;;;5071123;28;20071;-75
2021/12/19 11:19:25;;;;;;;3.35;2.00;;;8.90;99.20;;;;;;5071836;28;20036;-75
2021/12/19 11:21:51;;;;;;;6.32;1.98;;;8.90;99.30;;;;;;5072856;28;20074;-75
2021/12/19 11:24:19;;;;;;;9.38;1.98;;;8.80;99.30;;;;;;5071584;28;20364;-74
2021/12/19 11:26:48;;;;;;;7.07;1.95;;;8.80;99.60;;;;;;5071423;28;20020;-75
2021/12/19 11:29:14;;;;;;;3.45;1.80;;;8.70;99.40;;;;;;5071867;28;20032;-75
2021/12/19 11:31:45;;;;;;;5.28;1.75;;;8.70;99.40;;;;;;5071284;28;20029;-75
2021/12/19 11:34:21;;;;;;;5.20;2.30;;;8.80;99.40;;;;;;5071017;28;20025;-75
2021/12/19 11:37:05;;;;;;;7.68;2.50;;;8.80;99.40;;;;;;5071434;28;20029;-76
2021/12/19 11:39:34;;;;;;;5.43;1.70;;;8.80;99.40;;;;;;5071896;28;20025;-75
2021/12/19 11:42:08;;;;;;;5.28;2.05;;;8.80;99.40;;;;;;5071117;28;20111;-75
2021/12/19 11:45:03;;;;;;;4.75;2.25;;;8.90;99.30;;;;;;5071368;28;20090;-75
2021/12/19 11:47:47;;;;;;;5.05;2.20;;;8.90;99.30;;;;;;5072582;28;20051;-75
2021/12/19 11:50:23;;;;;;;4.70;1.73;;;8.90;99.30;;;;;;5071850;28;20436;-75
2021/12/19 11:52:57;;;;;;;4.57;2.20;;;8.80;99.30;;;;;;5071485;28;20375;-76
2021/12/19 11:55:38;;;;;;;6.88;2.20;;;8.90;99.30;;;;;;5073041;28;20059;-75
2021/12/19 11:58:12;;;;;;;5.07;2.00;;;8.90;99.30;;;;;;5071264;28;20016;-74
2021/12/19 12:01:00;;;;;;;6.32;1.88;;;8.90;99.30;;;;;;5071041;28;20124;-75
2021/12/19 12:03:31;;;;;;;3.65;1.40;;;8.90;99.30;;;;;;5070976;28;20441;-75
2021/12/19 12:06:09;;;;;;;5.40;2.05;;;8.80;99.20;;;;;;5072015;28;20099;-75
2021/12/19 12:08:36;;;;;;;3.25;1.52;;;8.70;99.30;;;;;;5071022;28;20473;-75
2021/12/19 12:11:05;;;;;;;3.95;1.77;;;8.70;99.30;;;;;;5071119;28;20333;-75
2021/12/19 12:13:41;;;;;;;3.13;1.67;;;8.70;99.40;;;;;;5072412;28;20043;-75
2021/12/19 12:16:14;;;;;;;12.55;1.90;;;8.70;99.30;;;;;;5079388;28;20067;-75
2021/12/19 12:18:43;;;;;;;2.42;1.38;;;8.80;99.30;;;;;;5075128;28;20119;-75
2021/12/19 12:21:19;;;;;;;4.90;1.38;;;8.70;99.30;;;;;;5092395;28;20032;-75
2021/12/19 12:23:59;;;;;;;4.90;1.92;;;8.80;99.30;;;;;;5074177;28;20024;-75
2021/12/19 12:26:42;;;;;;;2.72;1.42;;;8.80;99.20;;;;;;5092690;28;20027;-75
2021/12/19 12:29:08;;;;;;;3.60;1.48;;;8.80;99.10;;;;;;5092794;28;20434;-74
2021/12/19 12:31:35;;;;;;;3.15;1.42;;;8.80;99.10;;;;;;5092066;28;20032;-74
2021/12/19 12:34:03;;;;;;;5.70;1.50;;;8.80;99.10;;;;;;5074306;28;20024;-75
2021/12/19 12:36:29;;;;;;;6.32;1.50;;;8.80;99.10;;;;;;5093918;28;20028;-74
2021/12/19 12:38:55;;;;;;;3.53;1.55;;;8.80;99.10;;;;;;5077513;28;20506;-75
2021/12/19 12:41:30;;;;;;;3.40;1.67;;;8.70;99.10;;;;;;5077498;28;20084;-76
2021/12/19 12:44:03;;;;;;;7.13;1.60;;;8.70;99.20;;;;;;5096033;28;20111;-75
2021/12/19 12:46:29;;;;;;;3.92;2.00;;;8.70;99.10;;;;;;5077694;28;20028;-74
2021/12/19 12:49:00;;;;;;;6.75;1.70;;;8.70;99.10;;;;;;5095636;28;20096;-74
2021/12/19 12:51:30;;;;;;;3.72;1.77;;;8.80;99.20;;;;;;5077274;28;20067;-75
2021/12/19 12:54:07;;;;;;;5.53;1.90;;;8.80;99.10;;;;;;5095321;28;20112;-75
2021/12/19 12:56:38;;;;;;;4.22;2.10;;;8.80;99.10;;;;;;5095364;28;20023;-75
2021/12/19 12:59:05;;;;;;;5.13;1.95;;;8.70;99.10;;;;;;5077413;28;20409;-75
2021/12/19 13:02:23;;;;;;;4.07;1.80;;;8.60;99.20;;;;;;5095207;28;20031;-75
2021/12/19 13:04:51;;;;;;;3.58;1.60;;;8.70;99.30;;;;;;5077363;28;20043;-74
2021/12/19 13:07:17;;;;;;;5.22;2.05;;;8.70;99.20;;;;;;5095152;28;20020;-75
2021/12/19 13:09:44;;;;;;;6.03;2.05;;;8.80;99.20;;;;;;5076976;28;20028;-75
2021/12/19 13:12:16;;;;;;;2.47;1.40;;;8.80;99.20;;;;;;5095084;28;20027;-75
2021/12/19 13:14:46;;;;;;;6.60;2.10;;;8.80;99.20;;;;;;5076899;28;20078;-75
2021/12/19 13:17:45;;;;;;;3.03;1.73;;;8.80;99.10;;;;;;5095041;28;20047;-74
2021/12/19 13:20:22;;;;;;;3.85;1.60;;;8.80;99.20;;;;;;5076086;28;20131;-75
2021/12/19 13:22:54;;;;;;;4.85;2.00;;;8.80;99.30;;;;;;5094981;28;20020;-75
2021/12/19 13:25:28;;;;;;;;;;;8.80;99.20;;;;;;5077286;28;20175;-74
2021/12/19 13:28:05;;;;;;;5.07;1.80;;;8.80;99.10;;;;;;5076721;28;19915;-74
2021/12/19 13:30:41;;;;;;;3.00;1.40;;;8.80;99.10;;;;;;5077330;28;20032;-74
2021/12/19 13:33:10;;;;;;;2.63;1.60;;;8.80;99.10;;;;;;5094737;28;20028;-74
2021/12/19 13:35:43;;;;;;;2.95;1.40;;;8.80;99.10;;;;;;5094964;28;20027;-75
2021/12/19 13:38:11;;;;;;;2.95;1.30;;;8.80;99.10;;;;;;5094322;28;20029;-75
2021/12/19 13:40:51;;;;;;;2.33;1.33;;;8.90;99.10;;;;;;5076429;28;20067;-75
2021/12/19 13:43:22;;;;;;;3.10;1.50;;;9.00;99.00;;;;;;5094519;28;20035;-75
2021/12/19 13:46:00;;;;;;;4.07;1.60;;;8.90;99.00;;;;;;5076407;28;20051;-75
2021/12/19 13:48:28;;;;;;;3.58;1.58;;;8.90;99.00;;;;;;5094710;28;20056;-74
2021/12/19 13:50:53;;;;;;;3.65;1.30;;;8.90;99.00;;;;;;5076203;28;20042;-74
2021/12/19 13:53:19;;;;;;;1.73;1.00;;;8.90;99.10;;;;;;5094315;28;20472;-75
2021/12/19 13:55:55;;;;;;;2.63;1.20;;;8.90;99.10;;;;;;5076107;28;20031;-75
2021/12/19 13:58:22;;;;;;;1.95;1.20;;;8.90;99.10;;;;;;5094896;28;20024;-74
2021/12/19 14:00:51;;;;;;;3.38;1.52;;;8.90;99.20;;;;;;5076124;28;20035;-74
2021/12/19 14:03:35;;;;;;;4.88;1.10;;;8.90;99.10;;;;;;5094083;28;20023;-74
2021/12/19 14:06:00;;;;;;;6.00;1.88;;;9.00;99.10;;;;;;5076266;28;20024;-74
2021/12/19 14:08:30;;;;;;;4.72;1.35;;;9.00;99.00;;;;;;5076177;28;20372;-75
2021/12/19 14:11:05;;;;;;;2.33;1.30;;;9.00;99.10;;;;;;5075811;28;20039;-74